sensor_id;sensor_type;location;lat;lon;timestamp;P1;durP1;ratioP1;P2;durP2;ratioP2
20997;SDS011;10657;51.276;6.390;2023-06-19T00:00:28;10.25;;;5.43;;
20997;SDS011;10657;51.276;6.390;2023-06-19T00:02:56;9.18;;;5.55;;
20997;SDS011;10657;51.276;6.390;2023-06-19T00:05:23;9.00;;;5.55;;
20997;SDS011;10657;51.276;6.390;2023-06-19T00:07:51;11.35;;;5.75;;
20997;SDS011;10657;51.276;6.390;2023-06-19T00:10:18;10.52;;;5.82;;
20997;SDS011;10657;51.276;6.390;2023-06-19T00:12:45;8.98;;;5.72;;
20997;SDS011;10657;51.276;6.390;2023-06-19T00:15:12;8.65;;;5.80;;
20997;SDS011;10657;51.276;6.390;2023-06-19T00:17:38;7.78;;;4.60;;
20997;SDS011;10657;51.276;6.390;2023-06-19T00:20:05;8.43;;;5.53;;
20997;SDS011;10657;51.276;6.390;2023-06-19T00:22:32;9.02;;;5.60;;
20997;SDS011;10657;51.276;6.390;2023-06-19T00:24:59;10.35;;;5.25;;
20997;SDS011;10657;51.276;6.390;2023-06-19T00:27:27;11.48;;;5.70;;
20997;SDS011;10657;51.276;6.390;2023-06-19T00:29:54;9.82;;;5.28;;
20997;SDS011;10657;51.276;6.390;2023-06-19T00:32:21;7.68;;;5.05;;
20997;SDS011;10657;51.276;6.390;2023-06-19T00:34:47;8.88;;;5.78;;
20997;SDS011;10657;51.276;6.390;2023-06-19T00:37:14;9.00;;;5.57;;
20997;SDS011;10657;51.276;6.390;2023-06-19T00:39:41;12.23;;;5.90;;
20997;SDS011;10657;51.276;6.390;2023-06-19T00:42:10;9.15;;;5.75;;
20997;SDS011;10657;51.276;6.390;2023-06-19T00:44:37;9.65;;;5.63;;
20997;SDS011;10657;51.276;6.390;2023-06-19T00:47:03;10.38;;;5.72;;
20997;SDS011;10657;51.276;6.390;2023-06-19T00:49:31;11.43;;;5.22;;
20997;SDS011;10657;51.276;6.390;2023-06-19T00:51:58;9.55;;;5.35;;
20997;SDS011;10657;51.276;6.390;2023-06-19T00:54:25;8.68;;;5.40;;
20997;SDS011;10657;51.276;6.390;2023-06-19T00:56:52;8.23;;;5.20;;
20997;SDS011;10657;51.276;6.390;2023-06-19T00:59:20;7.90;;;5.15;;
20997;SDS011;10657;51.276;6.390;2023-06-19T01:01:47;9.70;;;5.80;;
20997;SDS011;10657;51.276;6.390;2023-06-19T01:04:14;13.35;;;5.70;;
20997;SDS011;10657;51.276;6.390;2023-06-19T01:06:54;10.93;;;5.65;;
20997;SDS011;10657;51.276;6.390;2023-06-19T01:09:25;8.30;;;5.13;;
20997;SDS011;10657;51.276;6.390;2023-06-19T01:12:19;7.70;;;4.78;;
20997;SDS011;10657;51.276;6.390;2023-06-19T01:15:03;7.97;;;5.20;;
20997;SDS011;10657;51.276;6.390;2023-06-19T01:17:31;8.10;;;5.15;;
20997;SDS011;10657;51.276;6.390;2023-06-19T01:19:59;8.35;;;5.28;;
20997;SDS011;10657;51.276;6.390;2023-06-19T01:24:53;10.32;;;6.25;;
20997;SDS011;10657;51.276;6.390;2023-06-19T01:27:20;10.02;;;5.63;;
20997;SDS011;10657;51.276;6.390;2023-06-19T01:29:58;8.35;;;5.45;;
20997;SDS011;10657;51.276;6.390;2023-06-19T01:35:12;9.52;;;6.03;;
20997;SDS011;10657;51.276;6.390;2023-06-19T01:37:40;9.50;;;6.00;;
20997;SDS011;10657;51.276;6.390;2023-06-19T01:40:08;9.65;;;6.00;;
20997;SDS011;10657;51.276;6.390;2023-06-19T01:42:37;9.63;;;5.85;;
20997;SDS011;10657;51.276;6.390;2023-06-19T01:45:05;8.68;;;5.68;;
20997;SDS011;10657;51.276;6.390;2023-06-19T01:47:32;8.45;;;5.25;;
20997;SDS011;10657;51.276;6.390;2023-06-19T01:49:59;8.02;;;4.88;;
20997;SDS011;10657;51.276;6.390;2023-06-19T01:52:27;9.15;;;5.20;;
20997;SDS011;10657;51.276;6.390;2023-06-19T01:54:54;10.25;;;5.30;;
20997;SDS011;10657;51.276;6.390;2023-06-19T01:57:20;8.52;;;5.10;;
20997;SDS011;10657;51.276;6.390;2023-06-19T01:59:47;10.68;;;4.97;;
20997;SDS011;10657;51.276;6.390;2023-06-19T02:02:14;10.73;;;5.70;;
20997;SDS011;10657;51.276;6.390;2023-06-19T02:04:41;9.05;;;5.25;;
20997;SDS011;10657;51.276;6.390;2023-06-19T02:07:07;8.73;;;5.28;;
20997;SDS011;10657;51.276;6.390;2023-06-19T02:09:34;9.20;;;5.57;;
20997;SDS011;10657;51.276;6.390;2023-06-19T02:12:01;9.45;;;5.45;;
20997;SDS011;10657;51.276;6.390;2023-06-19T02:14:28;12.40;;;5.78;;
20997;SDS011;10657;51.276;6.390;2023-06-19T02:16:55;8.68;;;5.90;;
20997;SDS011;10657;51.276;6.390;2023-06-19T02:19:22;10.25;;;5.25;;
20997;SDS011;10657;51.276;6.390;2023-06-19T02:21:48;9.30;;;5.25;;
20997;SDS011;10657;51.276;6.390;2023-06-19T02:24:15;11.27;;;5.32;;
20997;SDS011;10657;51.276;6.390;2023-06-19T02:26:42;8.32;;;5.00;;
20997;SDS011;10657;51.276;6.390;2023-06-19T02:29:10;9.02;;;5.05;;
20997;SDS011;10657;51.276;6.390;2023-06-19T02:31:36;11.63;;;5.00;;
20997;SDS011;10657;51.276;6.390;2023-06-19T02:34:03;9.95;;;4.70;;
20997;SDS011;10657;51.276;6.390;2023-06-19T02:36:30;8.75;;;4.50;;
20997;SDS011;10657;51.276;6.390;2023-06-19T02:38:57;12.27;;;4.57;;
20997;SDS011;10657;51.276;6.390;2023-06-19T02:41:24;9.30;;;4.30;;
20997;SDS011;10657;51.276;6.390;2023-06-19T02:43:51;11.90;;;4.28;;
20997;SDS011;10657;51.276;6.390;2023-06-19T02:46:17;7.10;;;4.00;;
20997;SDS011;10657;51.276;6.390;2023-06-19T02:48:44;9.15;;;4.38;;
20997;SDS011;10657;51.276;6.390;2023-06-19T02:51:11;8.95;;;4.38;;
20997;SDS011;10657;51.276;6.390;2023-06-19T02:53:38;7.35;;;3.90;;
20997;SDS011;10657;51.276;6.390;2023-06-19T02:56:04;7.85;;;3.83;;
20997;SDS011;10657;51.276;6.390;2023-06-19T02:58:31;6.97;;;3.83;;
20997;SDS011;10657;51.276;6.390;2023-06-19T03:00:58;7.22;;;3.92;;
20997;SDS011;10657;51.276;6.390;2023-06-19T03:03:25;7.47;;;3.88;;
20997;SDS011;10657;51.276;6.390;2023-06-19T03:05:52;7.18;;;3.80;;
20997;SDS011;10657;51.276;6.390;2023-06-19T03:08:18;7.43;;;3.63;;
20997;SDS011;10657;51.276;6.390;2023-06-19T03:10:45;7.95;;;3.42;;
20997;SDS011;10657;51.276;6.390;2023-06-19T03:13:12;7.32;;;3.97;;
20997;SDS011;10657;51.276;6.390;2023-06-19T03:15:39;8.35;;;3.83;;
20997;SDS011;10657;51.276;6.390;2023-06-19T03:18:06;9.07;;;3.47;;
20997;SDS011;10657;51.276;6.390;2023-06-19T03:20:35;10.38;;;3.60;;
20997;SDS011;10657;51.276;6.390;2023-06-19T03:23:02;7.93;;;3.40;;
20997;SDS011;10657;51.276;6.390;2023-06-19T03:25:29;9.82;;;4.07;;
20997;SDS011;10657;51.276;6.390;2023-06-19T03:28:01;7.88;;;3.50;;
20997;SDS011;10657;51.276;6.390;2023-06-19T03:30:31;7.57;;;4.13;;
20997;SDS011;10657;51.276;6.390;2023-06-19T03:32:57;7.10;;;3.60;;
20997;SDS011;10657;51.276;6.390;2023-06-19T03:35:24;8.10;;;3.60;;
20997;SDS011;10657;51.276;6.390;2023-06-19T03:37:51;9.23;;;4.00;;
20997;SDS011;10657;51.276;6.390;2023-06-19T03:40:18;7.40;;;4.07;;
20997;SDS011;10657;51.276;6.390;2023-06-19T03:42:45;6.88;;;3.80;;
20997;SDS011;10657;51.276;6.390;2023-06-19T03:45:12;8.32;;;3.78;;
20997;SDS011;10657;51.276;6.390;2023-06-19T03:47:38;8.15;;;4.00;;
20997;SDS011;10657;51.276;6.390;2023-06-19T03:50:05;10.50;;;4.07;;
20997;SDS011;10657;51.276;6.390;2023-06-19T03:52:46;9.73;;;3.85;;
20997;SDS011;10657;51.276;6.390;2023-06-19T03:55:13;7.90;;;4.35;;
20997;SDS011;10657;51.276;6.390;2023-06-19T03:57:40;7.53;;;4.10;;
20997;SDS011;10657;51.276;6.390;2023-06-19T04:00:07;9.38;;;3.70;;
20997;SDS011;10657;51.276;6.390;2023-06-19T04:02:34;6.80;;;3.60;;
20997;SDS011;10657;51.276;6.390;2023-06-19T04:05:00;8.10;;;3.72;;
20997;SDS011;10657;51.276;6.390;2023-06-19T04:07:27;8.43;;;3.65;;
20997;SDS011;10657;51.276;6.390;2023-06-19T04:09:54;9.00;;;3.55;;
20997;SDS011;10657;51.276;6.390;2023-06-19T04:12:21;8.60;;;3.97;;
20997;SDS011;10657;51.276;6.390;2023-06-19T04:14:48;7.15;;;3.42;;
20997;SDS011;10657;51.276;6.390;2023-06-19T04:17:14;7.25;;;3.72;;
20997;SDS011;10657;51.276;6.390;2023-06-19T04:19:41;7.28;;;3.58;;
20997;SDS011;10657;51.276;6.390;2023-06-19T04:22:08;11.25;;;4.25;;
20997;SDS011;10657;51.276;6.390;2023-06-19T04:24:36;8.65;;;3.90;;
20997;SDS011;10657;51.276;6.390;2023-06-19T04:27:03;7.20;;;3.78;;
20997;SDS011;10657;51.276;6.390;2023-06-19T04:29:30;7.47;;;4.10;;
20997;SDS011;10657;51.276;6.390;2023-06-19T04:31:58;7.55;;;3.63;;
20997;SDS011;10657;51.276;6.390;2023-06-19T04:34:25;7.75;;;4.30;;
20997;SDS011;10657;51.276;6.390;2023-06-19T04:36:52;7.38;;;3.78;;
20997;SDS011;10657;51.276;6.390;2023-06-19T04:39:19;10.35;;;3.78;;
20997;SDS011;10657;51.276;6.390;2023-06-19T04:41:45;7.30;;;4.03;;
20997;SDS011;10657;51.276;6.390;2023-06-19T04:44:12;8.18;;;3.45;;
20997;SDS011;10657;51.276;6.390;2023-06-19T04:46:40;7.07;;;3.45;;
20997;SDS011;10657;51.276;6.390;2023-06-19T04:49:07;10.65;;;3.55;;
20997;SDS011;10657;51.276;6.390;2023-06-19T04:51:35;8.48;;;3.85;;
20997;SDS011;10657;51.276;6.390;2023-06-19T04:54:02;6.82;;;3.38;;
20997;SDS011;10657;51.276;6.390;2023-06-19T04:56:28;10.75;;;3.80;;
20997;SDS011;10657;51.276;6.390;2023-06-19T04:58:55;9.13;;;3.35;;
20997;SDS011;10657;51.276;6.390;2023-06-19T05:01:26;10.05;;;3.60;;
20997;SDS011;10657;51.276;6.390;2023-06-19T05:03:56;7.65;;;3.80;;
20997;SDS011;10657;51.276;6.390;2023-06-19T05:06:23;8.45;;;3.35;;
20997;SDS011;10657;51.276;6.390;2023-06-19T05:08:50;7.45;;;3.35;;
20997;SDS011;10657;51.276;6.390;2023-06-19T05:11:18;6.53;;;2.97;;
20997;SDS011;10657;51.276;6.390;2023-06-19T05:13:45;7.75;;;3.40;;
20997;SDS011;10657;51.276;6.390;2023-06-19T05:16:11;9.05;;;3.38;;
20997;SDS011;10657;51.276;6.390;2023-06-19T05:18:42;8.55;;;3.50;;
20997;SDS011;10657;51.276;6.390;2023-06-19T05:21:10;6.15;;;2.95;;
20997;SDS011;10657;51.276;6.390;2023-06-19T05:23:37;6.72;;;3.00;;
20997;SDS011;10657;51.276;6.390;2023-06-19T05:26:04;6.28;;;2.78;;
20997;SDS011;10657;51.276;6.390;2023-06-19T05:28:31;6.30;;;3.00;;
20997;SDS011;10657;51.276;6.390;2023-06-19T05:30:58;7.93;;;2.80;;
20997;SDS011;10657;51.276;6.390;2023-06-19T05:33:25;7.97;;;2.90;;
20997;SDS011;10657;51.276;6.390;2023-06-19T05:35:52;6.85;;;3.08;;
20997;SDS011;10657;51.276;6.390;2023-06-19T05:38:20;7.15;;;2.45;;
20997;SDS011;10657;51.276;6.390;2023-06-19T05:40:47;8.80;;;3.08;;
20997;SDS011;10657;51.276;6.390;2023-06-19T05:43:13;6.10;;;2.70;;
20997;SDS011;10657;51.276;6.390;2023-06-19T05:45:40;5.55;;;2.47;;
20997;SDS011;10657;51.276;6.390;2023-06-19T05:48:07;6.18;;;2.53;;
20997;SDS011;10657;51.276;6.390;2023-06-19T05:50:34;6.70;;;2.35;;
20997;SDS011;10657;51.276;6.390;2023-06-19T05:53:00;8.10;;;2.85;;
20997;SDS011;10657;51.276;6.390;2023-06-19T05:55:27;9.25;;;2.90;;
20997;SDS011;10657;51.276;6.390;2023-06-19T05:57:55;6.55;;;2.75;;
20997;SDS011;10657;51.276;6.390;2023-06-19T06:00:22;9.65;;;2.92;;
20997;SDS011;10657;51.276;6.390;2023-06-19T06:02:49;6.32;;;3.00;;
20997;SDS011;10657;51.276;6.390;2023-06-19T06:05:18;6.82;;;3.15;;
20997;SDS011;10657;51.276;6.390;2023-06-19T06:07:46;7.05;;;2.80;;
20997;SDS011;10657;51.276;6.390;2023-06-19T06:10:13;7.25;;;3.33;;
20997;SDS011;10657;51.276;6.390;2023-06-19T06:12:40;6.95;;;2.88;;
20997;SDS011;10657;51.276;6.390;2023-06-19T06:15:07;9.25;;;3.30;;
20997;SDS011;10657;51.276;6.390;2023-06-19T06:17:34;8.05;;;3.25;;
20997;SDS011;10657;51.276;6.390;2023-06-19T06:20:01;6.60;;;3.25;;
20997;SDS011;10657;51.276;6.390;2023-06-19T06:22:28;5.72;;;2.88;;
20997;SDS011;10657;51.276;6.390;2023-06-19T06:24:55;8.20;;;3.40;;
20997;SDS011;10657;51.276;6.390;2023-06-19T06:27:22;6.68;;;3.00;;
20997;SDS011;10657;51.276;6.390;2023-06-19T06:29:49;6.65;;;2.83;;
20997;SDS011;10657;51.276;6.390;2023-06-19T06:32:15;6.68;;;2.88;;
20997;SDS011;10657;51.276;6.390;2023-06-19T06:34:42;7.85;;;3.05;;
20997;SDS011;10657;51.276;6.390;2023-06-19T06:37:09;8.60;;;3.33;;
20997;SDS011;10657;51.276;6.390;2023-06-19T06:39:35;7.18;;;3.10;;
20997;SDS011;10657;51.276;6.390;2023-06-19T06:42:02;6.07;;;3.10;;
20997;SDS011;10657;51.276;6.390;2023-06-19T06:44:29;7.68;;;3.70;;
20997;SDS011;10657;51.276;6.390;2023-06-19T06:46:56;10.60;;;3.50;;
20997;SDS011;10657;51.276;6.390;2023-06-19T06:49:23;8.35;;;3.67;;
20997;SDS011;10657;51.276;6.390;2023-06-19T06:51:50;7.72;;;3.45;;
20997;SDS011;10657;51.276;6.390;2023-06-19T06:54:16;8.25;;;3.80;;
20997;SDS011;10657;51.276;6.390;2023-06-19T06:56:43;9.57;;;3.90;;
20997;SDS011;10657;51.276;6.390;2023-06-19T06:59:13;8.77;;;3.70;;
20997;SDS011;10657;51.276;6.390;2023-06-19T07:01:43;10.43;;;3.63;;
20997;SDS011;10657;51.276;6.390;2023-06-19T07:04:09;8.20;;;3.30;;
20997;SDS011;10657;51.276;6.390;2023-06-19T07:06:36;6.78;;;3.65;;
20997;SDS011;10657;51.276;6.390;2023-06-19T07:09:03;7.90;;;3.33;;
20997;SDS011;10657;51.276;6.390;2023-06-19T07:11:30;9.20;;;4.55;;
20997;SDS011;10657;51.276;6.390;2023-06-19T07:13:57;8.18;;;3.80;;
20997;SDS011;10657;51.276;6.390;2023-06-19T07:16:23;7.57;;;3.40;;
20997;SDS011;10657;51.276;6.390;2023-06-19T07:18:50;9.50;;;3.83;;
20997;SDS011;10657;51.276;6.390;2023-06-19T07:21:17;8.18;;;3.60;;
20997;SDS011;10657;51.276;6.390;2023-06-19T07:23:44;9.05;;;3.80;;
20997;SDS011;10657;51.276;6.390;2023-06-19T07:26:16;8.07;;;3.85;;
20997;SDS011;10657;51.276;6.390;2023-06-19T07:28:43;10.93;;;4.00;;
20997;SDS011;10657;51.276;6.390;2023-06-19T07:31:10;8.27;;;3.78;;
20997;SDS011;10657;51.276;6.390;2023-06-19T07:33:37;8.48;;;4.15;;
20997;SDS011;10657;51.276;6.390;2023-06-19T07:36:03;7.65;;;4.30;;
20997;SDS011;10657;51.276;6.390;2023-06-19T07:38:30;10.18;;;3.90;;
20997;SDS011;10657;51.276;6.390;2023-06-19T07:40:57;9.35;;;4.45;;
20997;SDS011;10657;51.276;6.390;2023-06-19T07:43:24;7.78;;;4.47;;
20997;SDS011;10657;51.276;6.390;2023-06-19T07:45:51;9.02;;;4.20;;
20997;SDS011;10657;51.276;6.390;2023-06-19T07:48:17;9.20;;;4.60;;
20997;SDS011;10657;51.276;6.390;2023-06-19T07:50:44;10.13;;;4.38;;
20997;SDS011;10657;51.276;6.390;2023-06-19T07:53:12;10.18;;;4.22;;
20997;SDS011;10657;51.276;6.390;2023-06-19T07:55:38;10.70;;;4.30;;
20997;SDS011;10657;51.276;6.390;2023-06-19T07:58:05;9.38;;;5.00;;
20997;SDS011;10657;51.276;6.390;2023-06-19T08:00:32;7.63;;;3.90;;
20997;SDS011;10657;51.276;6.390;2023-06-19T08:02:59;9.10;;;4.43;;
20997;SDS011;10657;51.276;6.390;2023-06-19T08:05:26;10.68;;;4.20;;
20997;SDS011;10657;51.276;6.390;2023-06-19T08:07:53;6.70;;;3.72;;
20997;SDS011;10657;51.276;6.390;2023-06-19T08:10:19;7.40;;;3.75;;
20997;SDS011;10657;51.276;6.390;2023-06-19T08:12:46;9.10;;;4.18;;
20997;SDS011;10657;51.276;6.390;2023-06-19T08:15:13;8.63;;;4.30;;
20997;SDS011;10657;51.276;6.390;2023-06-19T08:17:40;10.10;;;4.32;;
20997;SDS011;10657;51.276;6.390;2023-06-19T08:20:08;8.23;;;4.07;;
20997;SDS011;10657;51.276;6.390;2023-06-19T08:22:35;9.52;;;3.67;;
20997;SDS011;10657;51.276;6.390;2023-06-19T08:25:03;7.63;;;3.65;;
20997;SDS011;10657;51.276;6.390;2023-06-19T08:27:30;8.65;;;3.88;;
20997;SDS011;10657;51.276;6.390;2023-06-19T08:29:57;7.70;;;3.05;;
20997;SDS011;10657;51.276;6.390;2023-06-19T08:32:24;6.20;;;3.25;;
20997;SDS011;10657;51.276;6.390;2023-06-19T08:34:51;7.35;;;3.50;;
20997;SDS011;10657;51.276;6.390;2023-06-19T08:37:18;9.23;;;3.47;;
20997;SDS011;10657;51.276;6.390;2023-06-19T08:39:44;11.00;;;3.30;;
20997;SDS011;10657;51.276;6.390;2023-06-19T08:42:11;9.15;;;3.28;;
20997;SDS011;10657;51.276;6.390;2023-06-19T08:44:38;7.93;;;3.42;;
20997;SDS011;10657;51.276;6.390;2023-06-19T08:47:05;6.88;;;3.33;;
20997;SDS011;10657;51.276;6.390;2023-06-19T08:49:33;6.40;;;3.28;;
20997;SDS011;10657;51.276;6.390;2023-06-19T08:52:01;8.57;;;3.65;;
20997;SDS011;10657;51.276;6.390;2023-06-19T08:54:29;7.65;;;3.25;;
20997;SDS011;10657;51.276;6.390;2023-06-19T08:56:55;8.30;;;3.80;;
20997;SDS011;10657;51.276;6.390;2023-06-19T08:59:26;9.93;;;3.90;;
20997;SDS011;10657;51.276;6.390;2023-06-19T09:01:55;8.30;;;4.22;;
20997;SDS011;10657;51.276;6.390;2023-06-19T09:04:25;7.13;;;3.40;;
20997;SDS011;10657;51.276;6.390;2023-06-19T09:06:55;7.95;;;3.50;;
20997;SDS011;10657;51.276;6.390;2023-06-19T09:09:26;9.48;;;3.17;;
20997;SDS011;10657;51.276;6.390;2023-06-19T09:14:32;9.77;;;3.92;;
20997;SDS011;10657;51.276;6.390;2023-06-19T09:17:04;9.38;;;3.90;;
20997;SDS011;10657;51.276;6.390;2023-06-19T09:19:36;10.98;;;4.22;;
20997;SDS011;10657;51.276;6.390;2023-06-19T09:22:03;8.55;;;4.25;;
20997;SDS011;10657;51.276;6.390;2023-06-19T09:27:05;9.40;;;4.45;;
20997;SDS011;10657;51.276;6.390;2023-06-19T09:29:35;9.93;;;4.78;;
20997;SDS011;10657;51.276;6.390;2023-06-19T09:34:44;19.75;;;6.00;;
20997;SDS011;10657;51.276;6.390;2023-06-19T09:37:11;9.27;;;4.85;;
20997;SDS011;10657;51.276;6.390;2023-06-19T09:39:38;9.43;;;5.05;;
20997;SDS011;10657;51.276;6.390;2023-06-19T09:42:09;8.32;;;4.97;;
20997;SDS011;10657;51.276;6.390;2023-06-19T09:44:40;8.63;;;4.90;;
20997;SDS011;10657;51.276;6.390;2023-06-19T09:47:15;9.15;;;4.75;;
20997;SDS011;10657;51.276;6.390;2023-06-19T09:49:53;11.40;;;5.20;;
20997;SDS011;10657;51.276;6.390;2023-06-19T09:52:21;10.35;;;4.80;;
20997;SDS011;10657;51.276;6.390;2023-06-19T09:54:53;12.05;;;5.40;;
20997;SDS011;10657;51.276;6.390;2023-06-19T09:57:24;10.27;;;5.20;;
20997;SDS011;10657;51.276;6.390;2023-06-19T09:59:52;9.73;;;5.82;;
20997;SDS011;10657;51.276;6.390;2023-06-19T10:02:24;11.52;;;5.80;;
20997;SDS011;10657;51.276;6.390;2023-06-19T10:04:53;14.63;;;5.60;;
20997;SDS011;10657;51.276;6.390;2023-06-19T10:07:23;9.32;;;5.70;;
20997;SDS011;10657;51.276;6.390;2023-06-19T10:09:58;10.02;;;5.30;;
20997;SDS011;10657;51.276;6.390;2023-06-19T10:12:37;10.65;;;6.00;;
20997;SDS011;10657;51.276;6.390;2023-06-19T10:17:44;11.85;;;5.72;;
20997;SDS011;10657;51.276;6.390;2023-06-19T10:20:21;10.80;;;5.15;;
20997;SDS011;10657;51.276;6.390;2023-06-19T10:22:59;13.35;;;5.53;;
20997;SDS011;10657;51.276;6.390;2023-06-19T10:25:31;10.70;;;6.25;;
20997;SDS011;10657;51.276;6.390;2023-06-19T10:28:00;10.23;;;5.38;;
20997;SDS011;10657;51.276;6.390;2023-06-19T10:30:27;17.40;;;6.30;;
20997;SDS011;10657;51.276;6.390;2023-06-19T10:32:56;10.52;;;5.68;;
20997;SDS011;10657;51.276;6.390;2023-06-19T10:35:24;12.38;;;5.63;;
20997;SDS011;10657;51.276;6.390;2023-06-19T10:37:51;9.18;;;4.85;;
20997;SDS011;10657;51.276;6.390;2023-06-19T10:40:18;10.65;;;5.68;;
20997;SDS011;10657;51.276;6.390;2023-06-19T10:42:45;11.80;;;5.45;;
20997;SDS011;10657;51.276;6.390;2023-06-19T10:45:13;11.15;;;5.70;;
20997;SDS011;10657;51.276;6.390;2023-06-19T10:47:44;8.43;;;4.53;;
20997;SDS011;10657;51.276;6.390;2023-06-19T10:50:14;9.73;;;5.43;;
20997;SDS011;10657;51.276;6.390;2023-06-19T10:52:45;10.52;;;6.07;;
20997;SDS011;10657;51.276;6.390;2023-06-19T10:55:12;10.95;;;4.75;;
20997;SDS011;10657;51.276;6.390;2023-06-19T10:57:45;11.32;;;5.63;;
20997;SDS011;10657;51.276;6.390;2023-06-19T11:00:22;9.40;;;5.60;;
20997;SDS011;10657;51.276;6.390;2023-06-19T11:02:53;12.20;;;5.97;;
20997;SDS011;10657;51.276;6.390;2023-06-19T11:05:22;12.45;;;6.45;;
20997;SDS011;10657;51.276;6.390;2023-06-19T11:07:50;10.75;;;5.97;;
20997;SDS011;10657;51.276;6.390;2023-06-19T11:10:22;9.13;;;5.40;;
20997;SDS011;10657;51.276;6.390;2023-06-19T11:12:54;9.95;;;5.88;;
20997;SDS011;10657;51.276;6.390;2023-06-19T11:15:31;10.82;;;5.80;;
20997;SDS011;10657;51.276;6.390;2023-06-19T11:18:00;11.35;;;4.68;;
20997;SDS011;10657;51.276;6.390;2023-06-19T11:20:28;9.90;;;6.18;;
20997;SDS011;10657;51.276;6.390;2023-06-19T11:22:58;9.57;;;6.05;;
20997;SDS011;10657;51.276;6.390;2023-06-19T11:25:36;8.85;;;4.20;;
20997;SDS011;10657;51.276;6.390;2023-06-19T11:28:04;12.35;;;5.47;;
20997;SDS011;10657;51.276;6.390;2023-06-19T11:30:36;10.88;;;6.05;;
20997;SDS011;10657;51.276;6.390;2023-06-19T11:33:03;11.07;;;5.88;;
20997;SDS011;10657;51.276;6.390;2023-06-19T11:35:41;10.38;;;4.85;;
20997;SDS011;10657;51.276;6.390;2023-06-19T11:38:23;10.93;;;5.45;;
20997;SDS011;10657;51.276;6.390;2023-06-19T11:40:52;10.50;;;5.10;;
20997;SDS011;10657;51.276;6.390;2023-06-19T11:43:28;15.48;;;5.88;;
20997;SDS011;10657;51.276;6.390;2023-06-19T11:46:06;12.32;;;6.32;;
20997;SDS011;10657;51.276;6.390;2023-06-19T11:48:37;9.52;;;5.70;;
20997;SDS011;10657;51.276;6.390;2023-06-19T11:51:03;8.50;;;5.50;;
20997;SDS011;10657;51.276;6.390;2023-06-19T11:53:30;12.15;;;6.35;;
20997;SDS011;10657;51.276;6.390;2023-06-19T11:55:57;14.55;;;6.13;;
20997;SDS011;10657;51.276;6.390;2023-06-19T11:58:24;10.43;;;5.90;;
20997;SDS011;10657;51.276;6.390;2023-06-19T12:00:52;12.77;;;5.70;;
20997;SDS011;10657;51.276;6.390;2023-06-19T12:03:19;10.35;;;5.50;;
20997;SDS011;10657;51.276;6.390;2023-06-19T12:05:46;9.57;;;5.35;;
20997;SDS011;10657;51.276;6.390;2023-06-19T12:08:13;9.68;;;5.63;;
20997;SDS011;10657;51.276;6.390;2023-06-19T12:10:40;9.60;;;5.75;;
20997;SDS011;10657;51.276;6.390;2023-06-19T12:13:08;10.95;;;5.90;;
20997;SDS011;10657;51.276;6.390;2023-06-19T12:15:35;9.82;;;5.80;;
20997;SDS011;10657;51.276;6.390;2023-06-19T12:18:03;11.88;;;5.20;;
20997;SDS011;10657;51.276;6.390;2023-06-19T12:20:30;15.88;;;5.55;;
20997;SDS011;10657;51.276;6.390;2023-06-19T12:22:57;18.38;;;6.35;;
20997;SDS011;10657;51.276;6.390;2023-06-19T12:25:24;13.68;;;5.97;;
20997;SDS011;10657;51.276;6.390;2023-06-19T12:27:50;11.73;;;5.72;;
20997;SDS011;10657;51.276;6.390;2023-06-19T12:30:21;11.05;;;5.90;;
20997;SDS011;10657;51.276;6.390;2023-06-19T12:32:48;9.77;;;5.25;;
20997;SDS011;10657;51.276;6.390;2023-06-19T12:35:16;13.35;;;5.57;;
20997;SDS011;10657;51.276;6.390;2023-06-19T12:37:44;8.68;;;5.03;;
20997;SDS011;10657;51.276;6.390;2023-06-19T12:40:11;11.52;;;5.13;;
20997;SDS011;10657;51.276;6.390;2023-06-19T12:42:38;11.10;;;5.22;;
20997;SDS011;10657;51.276;6.390;2023-06-19T12:45:05;9.35;;;5.15;;
20997;SDS011;10657;51.276;6.390;2023-06-19T12:47:32;10.90;;;5.60;;
20997;SDS011;10657;51.276;6.390;2023-06-19T12:49:59;9.02;;;3.95;;
20997;SDS011;10657;51.276;6.390;2023-06-19T12:52:26;10.52;;;5.40;;
20997;SDS011;10657;51.276;6.390;2023-06-19T12:54:53;13.00;;;5.47;;
20997;SDS011;10657;51.276;6.390;2023-06-19T12:57:19;13.07;;;6.15;;
20997;SDS011;10657;51.276;6.390;2023-06-19T12:59:46;11.07;;;5.30;;
20997;SDS011;10657;51.276;6.390;2023-06-19T13:02:13;10.05;;;5.45;;
20997;SDS011;10657;51.276;6.390;2023-06-19T13:04:41;9.75;;;4.32;;
20997;SDS011;10657;51.276;6.390;2023-06-19T13:07:07;8.98;;;4.47;;
20997;SDS011;10657;51.276;6.390;2023-06-19T13:09:34;9.57;;;4.65;;
20997;SDS011;10657;51.276;6.390;2023-06-19T13:12:02;8.45;;;3.92;;
20997;SDS011;10657;51.276;6.390;2023-06-19T13:14:29;7.40;;;4.30;;
20997;SDS011;10657;51.276;6.390;2023-06-19T13:16:57;10.23;;;4.50;;
20997;SDS011;10657;51.276;6.390;2023-06-19T13:19:24;9.80;;;5.00;;
20997;SDS011;10657;51.276;6.390;2023-06-19T13:21:52;8.15;;;4.65;;
20997;SDS011;10657;51.276;6.390;2023-06-19T13:24:18;10.45;;;4.30;;
20997;SDS011;10657;51.276;6.390;2023-06-19T13:26:45;11.95;;;4.75;;
20997;SDS011;10657;51.276;6.390;2023-06-19T13:29:12;8.32;;;4.60;;
20997;SDS011;10657;51.276;6.390;2023-06-19T13:31:38;10.10;;;5.32;;
20997;SDS011;10657;51.276;6.390;2023-06-19T13:34:05;9.45;;;4.95;;
20997;SDS011;10657;51.276;6.390;2023-06-19T13:36:32;8.43;;;4.90;;
20997;SDS011;10657;51.276;6.390;2023-06-19T13:38:59;7.93;;;3.83;;
20997;SDS011;10657;51.276;6.390;2023-06-19T13:41:25;12.52;;;4.85;;
20997;SDS011;10657;51.276;6.390;2023-06-19T13:43:54;8.93;;;4.82;;
20997;SDS011;10657;51.276;6.390;2023-06-19T13:46:20;9.25;;;5.28;;
20997;SDS011;10657;51.276;6.390;2023-06-19T13:48:50;9.18;;;5.20;;
20997;SDS011;10657;51.276;6.390;2023-06-19T13:51:18;10.05;;;4.40;;
20997;SDS011;10657;51.276;6.390;2023-06-19T13:53:46;7.85;;;4.10;;
20997;SDS011;10657;51.276;6.390;2023-06-19T13:56:14;11.57;;;5.05;;
20997;SDS011;10657;51.276;6.390;2023-06-19T13:58:41;8.98;;;4.50;;
20997;SDS011;10657;51.276;6.390;2023-06-19T14:01:08;9.32;;;4.95;;
20997;SDS011;10657;51.276;6.390;2023-06-19T14:03:36;7.05;;;3.83;;
20997;SDS011;10657;51.276;6.390;2023-06-19T14:06:03;10.45;;;4.07;;
20997;SDS011;10657;51.276;6.390;2023-06-19T14:08:30;11.00;;;4.75;;
20997;SDS011;10657;51.276;6.390;2023-06-19T14:10:57;9.40;;;5.07;;
20997;SDS011;10657;51.276;6.390;2023-06-19T14:13:23;10.60;;;4.80;;
20997;SDS011;10657;51.276;6.390;2023-06-19T14:15:50;8.90;;;4.45;;
20997;SDS011;10657;51.276;6.390;2023-06-19T14:18:19;9.30;;;4.60;;
20997;SDS011;10657;51.276;6.390;2023-06-19T14:20:45;8.30;;;4.32;;
20997;SDS011;10657;51.276;6.390;2023-06-19T14:23:12;7.03;;;3.67;;
20997;SDS011;10657;51.276;6.390;2023-06-19T14:25:39;8.48;;;3.78;;
20997;SDS011;10657;51.276;6.390;2023-06-19T14:28:10;11.23;;;4.43;;
20997;SDS011;10657;51.276;6.390;2023-06-19T14:30:36;8.15;;;4.57;;
20997;SDS011;10657;51.276;6.390;2023-06-19T14:33:03;11.25;;;4.07;;
20997;SDS011;10657;51.276;6.390;2023-06-19T14:35:30;10.02;;;4.13;;
20997;SDS011;10657;51.276;6.390;2023-06-19T14:37:57;8.93;;;4.50;;
20997;SDS011;10657;51.276;6.390;2023-06-19T14:40:23;7.30;;;3.17;;
20997;SDS011;10657;51.276;6.390;2023-06-19T14:42:50;7.10;;;3.40;;
20997;SDS011;10657;51.276;6.390;2023-06-19T14:45:17;9.80;;;4.55;;
20997;SDS011;10657;51.276;6.390;2023-06-19T14:47:44;9.38;;;4.47;;
20997;SDS011;10657;51.276;6.390;2023-06-19T14:50:11;8.43;;;4.28;;
20997;SDS011;10657;51.276;6.390;2023-06-19T14:52:37;8.73;;;4.63;;
20997;SDS011;10657;51.276;6.390;2023-06-19T14:55:04;7.72;;;4.40;;
20997;SDS011;10657;51.276;6.390;2023-06-19T14:57:31;7.25;;;3.58;;
20997;SDS011;10657;51.276;6.390;2023-06-19T14:59:58;8.60;;;4.60;;
20997;SDS011;10657;51.276;6.390;2023-06-19T15:02:25;8.18;;;4.53;;